createdAt,value
2023-10-07T00:01:27.427Z,101687.69
2023-10-07T00:03:55.119Z,101677.56
2023-10-07T00:06:28.486Z,101672.34
2023-10-07T00:08:55.510Z,101683.16
2023-10-07T00:11:23.356Z,101682.34
2023-10-07T00:13:55.377Z,101685.13
2023-10-07T00:16:24.988Z,101684.50
2023-10-07T00:18:52.110Z,101693.34
2023-10-07T00:21:28.560Z,101690.88
2023-10-07T00:23:55.901Z,101685.19
2023-10-07T00:26:22.906Z,101689.44
2023-10-07T00:29:06.874Z,101694.84
2023-10-07T00:31:36.169Z,101690.59
2023-10-07T00:34:16.316Z,101704.47
2023-10-07T00:36:43.387Z,101704.47
2023-10-07T00:39:10.887Z,101702.50
2023-10-07T00:41:42.809Z,101703.13
2023-10-07T00:44:25.405Z,101696.94
2023-10-07T00:47:16.854Z,101699.22
2023-10-07T00:49:49.683Z,101698.84
2023-10-07T00:52:50.363Z,101701.09
2023-10-07T00:55:20.956Z,101698.97
2023-10-07T00:57:52.217Z,101691.13
2023-10-07T01:00:28.197Z,101688.97
2023-10-07T01:03:07.723Z,101690.63
2023-10-07T01:05:37.147Z,101686.03
2023-10-07T01:08:07.603Z,101688.47
2023-10-07T01:10:39.693Z,101690.91
2023-10-07T01:13:25.527Z,101694.19
2023-10-07T01:15:54.784Z,101702.19
2023-10-07T01:18:21.572Z,101697.94
2023-10-07T01:20:53.950Z,101707.41
2023-10-07T01:23:24.740Z,101700.19
2023-10-07T01:25:51.823Z,101691.56
2023-10-07T01:28:18.786Z,101693.16
2023-10-07T01:31:05.737Z,101692.97
2023-10-07T01:33:48.067Z,101691.19
2023-10-07T01:36:24.326Z,101686.59
2023-10-07T01:38:56.191Z,101686.59
2023-10-07T01:41:29.371Z,101681.19
2023-10-07T01:44:06.335Z,101688.41
2023-10-07T01:46:35.885Z,101681.53
2023-10-07T01:49:13.184Z,101684.78
2023-10-07T01:51:45.495Z,101679.56
2023-10-07T01:54:15.430Z,101676.75
2023-10-07T01:56:42.158Z,101666.47
2023-10-07T01:59:16.576Z,101668.91
2023-10-07T02:01:44.381Z,101676.59
2023-10-07T02:04:27.818Z,101666.28
2023-10-07T02:06:55.693Z,101665.50
2023-10-07T02:09:27.026Z,101660.28
2023-10-07T02:11:56.055Z,101666.97
2023-10-07T02:14:26.862Z,101663.69
2023-10-07T02:16:54.639Z,101664.50
2023-10-07T02:19:28.474Z,101670.56
2023-10-07T02:22:00.914Z,101673.16
2023-10-07T02:24:30.570Z,101673.16
2023-10-07T02:27:18.346Z,101668.56
2023-10-07T02:29:46.064Z,101663.34
2023-10-07T02:32:18.269Z,101676.41
2023-10-07T02:35:01.195Z,101672.81
2023-10-07T02:37:31.145Z,101671.81
2023-10-07T02:40:23.267Z,101676.06
2023-10-07T02:42:55.962Z,101680.47
2023-10-07T02:45:29.794Z,101684.75
2023-10-07T02:48:02.135Z,101680.13
2023-10-07T02:50:32.597Z,101674.72
2023-10-07T02:53:03.171Z,101672.09
2023-10-07T02:55:39.492Z,101669.47
2023-10-07T02:58:07.672Z,101669.28
2023-10-07T03:00:37.550Z,101668.50
2023-10-07T03:03:22.016Z,101668.50
2023-10-07T03:05:59.414Z,101660.66
2023-10-07T03:08:41.514Z,101660.47
2023-10-07T03:11:22.194Z,101663.44
2023-10-07T03:13:59.036Z,101665.88
2023-10-07T03:16:26.164Z,101660.66
2023-10-07T03:19:02.433Z,101659.66
2023-10-07T03:21:41.596Z,101665.88
2023-10-07T03:24:13.117Z,101658.03
2023-10-07T03:26:45.536Z,101657.84
2023-10-07T03:29:25.688Z,101661.44
2023-10-07T03:31:53.967Z,101657.03
2023-10-07T03:34:20.611Z,101665.88
2023-10-07T03:37:07.339Z,101670.94
2023-10-07T03:39:54.221Z,101680.78
2023-10-07T03:42:20.890Z,101677.00
2023-10-07T03:44:48.027Z,101683.81
2023-10-07T03:47:16.593Z,101680.41
2023-10-07T03:49:49.999Z,101674.38
2023-10-07T03:52:21.746Z,101671.75
2023-10-07T03:54:49.310Z,101684.66
2023-10-07T03:57:16.945Z,101682.03
2023-10-07T03:59:43.624Z,101673.19
2023-10-07T04:02:28.721Z,101670.59
2023-10-07T04:05:02.221Z,101681.06
2023-10-07T04:07:31.209Z,101687.25
2023-10-07T04:10:13.730Z,101677.63
2023-10-07T04:12:41.192Z,101667.16
2023-10-07T04:15:14.048Z,101677.81
2023-10-07T04:17:45.329Z,101673.19
2023-10-07T04:20:49.337Z,101659.31
2023-10-07T04:23:22.589Z,101649.81
2023-10-07T04:25:49.208Z,101642.16
2023-10-07T04:28:15.908Z,101659.50
2023-10-07T04:30:48.440Z,101664.72
2023-10-07T04:33:19.178Z,101653.59
2023-10-07T04:35:50.439Z,101654.25
2023-10-07T04:38:23.060Z,101658.47
2023-10-07T04:41:15.601Z,101659.50
2023-10-07T04:43:51.979Z,101654.06
2023-10-07T04:46:25.318Z,101659.31
2023-10-07T04:48:56.633Z,101661.09
2023-10-07T04:51:34.257Z,101661.91
2023-10-07T04:54:01.420Z,101658.28
2023-10-07T04:56:33.328Z,101653.88
2023-10-07T04:59:12.172Z,101648.66
2023-10-07T05:01:43.703Z,101647.03
2023-10-07T05:04:17.037Z,101643.41
2023-10-07T05:06:44.718Z,101655.69
2023-10-07T05:09:12.035Z,101655.69
2023-10-07T05:11:44.777Z,101646.84
2023-10-07T05:14:12.280Z,101656.50
2023-10-07T05:16:42.745Z,101646.66
2023-10-07T05:19:21.103Z,101651.09
2023-10-07T05:22:00.396Z,101657.31
2023-10-07T05:24:30.145Z,101643.41
2023-10-07T05:27:01.288Z,101657.50
2023-10-07T05:29:29.740Z,101651.25
2023-10-07T05:31:59.314Z,101651.09
2023-10-07T05:34:31.761Z,101651.25
2023-10-07T05:37:04.262Z,101652.91
2023-10-07T05:39:33.866Z,101657.31
2023-10-07T05:42:04.766Z,101647.47
2023-10-07T05:44:31.886Z,101659.59
2023-10-07T05:47:00.582Z,101649.28
2023-10-07T05:49:27.352Z,101650.56
2023-10-07T05:51:54.490Z,101652.56
2023-10-07T05:54:21.285Z,101651.53
2023-10-07T05:56:50.760Z,101652.19
2023-10-07T05:59:18.542Z,101646.94
2023-10-07T06:01:45.211Z,101637.94
2023-10-07T06:04:13.487Z,101635.13
2023-10-07T06:06:44.944Z,101633.16
2023-10-07T06:09:15.812Z,101635.59
2023-10-07T06:11:43.665Z,101637.38
2023-10-07T06:14:12.622Z,101643.88
2023-10-07T06:16:41.327Z,101643.09
2023-10-07T06:19:09.283Z,101643.72
2023-10-07T06:21:36.037Z,101642.53
2023-10-07T06:24:08.013Z,101643.19
2023-10-07T06:26:36.447Z,101651.66
2023-10-07T06:29:08.534Z,101668.97
2023-10-07T06:31:35.686Z,101664.41
2023-10-07T06:34:04.967Z,101673.31
2023-10-07T06:36:33.235Z,101669.88
2023-10-07T06:39:02.413Z,101678.63
2023-10-07T06:41:34.928Z,101675.66
2023-10-07T06:44:05.668Z,101676.75
2023-10-07T06:46:46.237Z,101679.00
2023-10-07T06:49:20.151Z,101671.97
2023-10-07T06:51:54.525Z,101673.22
2023-10-07T06:54:26.256Z,101671.06
2023-10-07T06:56:55.908Z,101683.97
2023-10-07T06:59:29.295Z,101679.19
2023-10-07T07:01:57.455Z,101671.13
2023-10-07T07:04:24.839Z,101676.81
2023-10-07T07:06:59.962Z,101673.84
2023-10-07T07:09:46.795Z,101676.94
2023-10-07T07:12:22.931Z,101680.19
2023-10-07T07:15:06.505Z,101682.63
2023-10-07T07:17:33.649Z,101697.34
2023-10-07T07:20:10.761Z,101680.63
2023-10-07T07:22:48.016Z,101692.56
2023-10-07T07:25:23.165Z,101706.28
2023-10-07T07:27:51.308Z,101693.81
2023-10-07T07:30:21.677Z,101698.69
2023-10-07T07:32:59.420Z,101703.72
2023-10-07T07:36:01.816Z,101700.41
2023-10-07T07:38:31.387Z,101697.66
2023-10-07T07:41:07.306Z,101694.66
2023-10-07T07:43:35.675Z,101686.44
2023-10-07T07:46:56.097Z,101680.44
2023-10-07T07:49:29.434Z,101675.81
2023-10-07T07:51:56.722Z,101676.44
2023-10-07T07:54:26.203Z,101663.41
2023-10-07T07:56:56.007Z,101653.38
2023-10-07T07:59:23.680Z,101658.41
2023-10-07T08:02:03.014Z,101647.34
2023-10-07T08:04:40.462Z,101662.53
2023-10-07T08:07:18.947Z,101668.47
2023-10-07T08:09:52.249Z,101670.44
2023-10-07T08:12:20.955Z,101678.88
2023-10-07T08:14:48.600Z,101680.81
2023-10-07T08:17:20.822Z,101666.53
2023-10-07T08:19:53.672Z,101672.19
2023-10-07T08:22:21.577Z,101670.19
2023-10-07T08:24:50.526Z,101672.63
2023-10-07T08:27:37.897Z,101674.00
2023-10-07T08:30:10.760Z,101668.94
2023-10-07T08:32:39.009Z,101674.44
2023-10-07T08:35:26.756Z,101675.69
2023-10-07T08:37:53.416Z,101665.81
2023-10-07T08:40:29.770Z,101672.75
2023-10-07T08:43:06.320Z,101667.28
2023-10-07T08:45:34.595Z,101682.88
2023-10-07T08:48:17.826Z,101684.47
2023-10-07T08:50:59.381Z,101689.16
2023-10-07T08:53:29.857Z,101692.63
2023-10-07T08:56:01.840Z,101687.59
2023-10-07T08:58:32.452Z,101682.13
2023-10-07T09:01:00.429Z,101680.97
2023-10-07T09:03:31.024Z,101691.16
2023-10-07T09:06:07.370Z,101673.19
2023-10-07T09:08:35.165Z,101674.41
2023-10-07T09:11:08.382Z,101671.63
2023-10-07T09:13:35.854Z,101667.97
2023-10-07T09:16:04.856Z,101680.75
2023-10-07T09:18:39.239Z,101670.06
2023-10-07T09:21:23.733Z,101669.47
2023-10-07T09:23:53.191Z,101675.34
2023-10-07T09:26:23.388Z,101673.75
2023-10-07T09:28:59.788Z,101668.28
2023-10-07T09:31:28.354Z,101669.31
2023-10-07T09:34:03.622Z,101666.06
2023-10-07T09:36:31.239Z,101683.91
2023-10-07T09:39:13.998Z,101682.06
2023-10-07T09:41:45.085Z,101679.84
2023-10-07T09:44:30.095Z,101683.47
2023-10-07T09:46:57.141Z,101690.13
2023-10-07T09:49:27.080Z,101694.78
2023-10-07T09:52:16.744Z,101691.72
2023-10-07T09:54:56.760Z,101692.53
2023-10-07T09:57:43.675Z,101684.63
2023-10-07T10:00:36.042Z,101691.91
2023-10-07T10:03:22.460Z,101691.47
2023-10-07T10:06:17.859Z,101680.75
2023-10-07T10:09:10.401Z,101673.63
2023-10-07T10:11:40.917Z,101674.41
2023-10-07T10:14:14.561Z,101670.28
2023-10-07T10:17:17.628Z,101672.03
2023-10-07T10:19:49.236Z,101683.53
2023-10-07T10:22:23.583Z,101680.06
2023-10-07T10:24:56.382Z,101688.19
2023-10-07T10:27:27.876Z,101693.63
2023-10-07T10:29:56.888Z,101704.34
2023-10-07T10:32:29.834Z,101707.16
2023-10-07T10:35:00.702Z,101698.72
2023-10-07T10:37:29.708Z,101700.13
2023-10-07T10:39:56.666Z,101697.13
2023-10-07T10:42:23.720Z,101702.31
2023-10-07T10:44:53.214Z,101706.78
2023-10-07T10:47:22.441Z,101701.72
2023-10-07T10:49:56.020Z,101707.06
2023-10-07T10:52:23.231Z,101700.00
2023-10-07T10:54:52.087Z,101711.31
2023-10-07T10:57:21.102Z,101714.59
2023-10-07T10:59:51.285Z,101728.16
2023-10-07T11:02:22.116Z,101729.78
2023-10-07T11:04:52.290Z,101729.56
2023-10-07T11:07:19.956Z,101717.19
2023-10-07T11:09:53.173Z,101714.13
2023-10-07T11:12:21.992Z,101703.13
2023-10-07T11:14:54.287Z,101704.72
2023-10-07T11:17:21.074Z,101702.44
2023-10-07T11:19:52.653Z,101700.59
2023-10-07T11:22:20.954Z,101701.19
2023-10-07T11:24:52.006Z,101691.75
2023-10-07T11:27:20.625Z,101697.44
2023-10-07T11:29:59.123Z,101692.78
2023-10-07T11:32:35.679Z,101695.63
2023-10-07T11:35:02.727Z,101690.34
2023-10-07T11:37:29.551Z,101687.22
2023-10-07T11:39:56.981Z,101692.28
2023-10-07T11:42:23.702Z,101692.41
2023-10-07T11:44:57.220Z,101693.75
2023-10-07T11:47:25.902Z,101693.44
2023-10-07T11:49:53.208Z,101695.97
2023-10-07T11:52:20.816Z,101681.91
2023-10-07T11:54:48.782Z,101680.44
2023-10-07T11:57:22.508Z,101684.25
2023-10-07T11:59:49.163Z,101687.78
2023-10-07T12:02:16.871Z,101698.41
2023-10-07T12:04:48.620Z,101693.63
2023-10-07T12:07:17.574Z,101695.66
2023-10-07T12:09:49.993Z,101691.47
2023-10-07T12:12:18.478Z,101695.88
2023-10-07T12:14:45.669Z,101686.94
2023-10-07T12:17:13.026Z,101687.81
2023-10-07T12:19:40.689Z,101694.31
2023-10-07T12:22:08.207Z,101692.53
2023-10-07T12:24:43.692Z,101693.50
2023-10-07T12:27:12.093Z,101693.09
2023-10-07T12:29:40.507Z,101682.88
2023-10-07T12:32:07.271Z,101682.25
2023-10-07T12:34:33.926Z,101683.13
2023-10-07T12:37:00.655Z,101686.41
2023-10-07T12:39:31.944Z,101676.09
2023-10-07T12:41:58.614Z,101668.19
2023-10-07T12:44:26.537Z,101664.28
2023-10-07T12:46:55.679Z,101666.88
2023-10-07T12:49:23.848Z,101657.88
2023-10-07T12:51:50.793Z,101668.97
2023-10-07T12:54:18.469Z,101668.19
2023-10-07T12:56:47.480Z,101652.38
2023-10-07T12:59:23.481Z,101655.25
2023-10-07T13:01:52.194Z,101651.34
2023-10-07T13:04:26.548Z,101641.59
2023-10-07T13:07:02.366Z,101653.84
2023-10-07T13:09:32.669Z,101644.97
2023-10-07T13:12:03.184Z,101630.13
2023-10-07T13:14:29.830Z,101631.97
2023-10-07T13:16:59.711Z,101631.16
2023-10-07T13:19:37.283Z,101625.28
2023-10-07T13:22:06.581Z,101634.44
2023-10-07T13:24:36.527Z,101631.59
2023-10-07T13:27:03.536Z,101639.88
2023-10-07T13:29:30.280Z,101650.25
2023-10-07T13:31:57.031Z,101657.53
2023-10-07T13:34:27.018Z,101649.59
2023-10-07T13:36:53.576Z,101647.53
2023-10-07T13:39:20.309Z,101660.53
2023-10-07T13:41:48.881Z,101663.56
2023-10-07T13:44:17.709Z,101664.78
2023-10-07T13:46:45.941Z,101681.06
2023-10-07T13:49:16.925Z,101668.66
2023-10-07T13:51:45.992Z,101663.97
2023-10-07T13:54:23.548Z,101655.25
2023-10-07T13:57:03.704Z,101646.50
2023-10-07T13:59:30.672Z,101639.63
2023-10-07T14:02:00.255Z,101637.56
2023-10-07T14:04:27.342Z,101626.78
2023-10-07T14:07:01.937Z,101633.88
2023-10-07T14:09:31.091Z,101639.97
2023-10-07T14:11:58.226Z,101645.84
2023-10-07T14:14:26.472Z,101650.53
2023-10-07T14:17:00.072Z,101646.06
2023-10-07T14:19:28.199Z,101632.06
2023-10-07T14:21:55.957Z,101625.97
2023-10-07T14:24:24.196Z,101620.09
2023-10-07T14:26:51.144Z,101600.84
2023-10-07T14:29:17.894Z,101617.34
2023-10-07T14:31:45.708Z,101618.47
2023-10-07T14:34:13.871Z,101642.25
2023-10-07T14:36:42.360Z,101638.06
2023-10-07T14:39:16.864Z,101641.66
2023-10-07T14:41:48.218Z,101633.69
2023-10-07T14:44:15.028Z,101621.53
2023-10-07T14:46:45.960Z,101626.00
2023-10-07T14:49:13.520Z,101623.63
2023-10-07T14:51:40.570Z,101606.81
2023-10-07T14:54:07.179Z,101621.31
2023-10-07T14:56:34.018Z,101616.44
2023-10-07T14:59:01.062Z,101616.69
2023-10-07T15:01:29.434Z,101631.34
2023-10-07T15:03:56.847Z,101646.38
2023-10-07T15:06:24.168Z,101635.22
2023-10-07T15:08:51.734Z,101634.22
2023-10-07T15:11:20.675Z,101628.34
2023-10-07T15:13:50.858Z,101628.78
2023-10-07T15:16:18.162Z,101632.06
2023-10-07T15:18:46.801Z,101629.81
2023-10-07T15:21:16.046Z,101633.59
2023-10-07T15:23:43.224Z,101641.28
2023-10-07T15:26:11.052Z,101645.13
2023-10-07T15:28:39.668Z,101652.69
2023-10-07T15:31:10.102Z,101659.81
2023-10-07T15:34:09.949Z,101660.19
2023-10-07T15:36:38.382Z,101670.94
2023-10-07T15:39:06.160Z,101676.84
2023-10-07T15:41:32.889Z,101663.47
2023-10-07T15:43:59.601Z,101658.44
2023-10-07T15:46:26.402Z,101669.19
2023-10-07T15:48:54.326Z,101669.81
2023-10-07T15:51:21.265Z,101659.28
2023-10-07T15:53:48.848Z,101664.94
2023-10-07T15:56:20.030Z,101663.13
2023-10-07T15:58:46.694Z,101661.50
2023-10-07T16:01:14.280Z,101680.38
2023-10-07T16:03:43.019Z,101676.50
2023-10-07T16:06:10.175Z,101679.00
2023-10-07T16:08:38.626Z,101686.06
2023-10-07T16:11:09.749Z,101692.19
2023-10-07T16:13:37.139Z,101693.56
2023-10-07T16:16:09.088Z,101700.69
2023-10-07T16:18:40.884Z,101701.91
2023-10-07T16:21:14.784Z,101689.13
2023-10-07T16:23:42.745Z,101686.72
2023-10-07T16:26:11.229Z,101697.44
2023-10-07T16:28:38.504Z,101691.56
2023-10-07T16:31:05.600Z,101699.91
2023-10-07T16:33:35.260Z,101689.97
2023-10-07T16:36:07.860Z,101695.81
2023-10-07T16:38:36.477Z,101694.22
2023-10-07T16:41:03.281Z,101695.66
2023-10-07T16:43:36.801Z,101696.44
2023-10-07T16:46:07.835Z,101704.56
2023-10-07T16:48:40.816Z,101699.28
2023-10-07T16:51:10.277Z,101701.31
2023-10-07T16:53:40.253Z,101699.69
2023-10-07T16:56:09.734Z,101718.53
2023-10-07T16:58:36.877Z,101704.56
2023-10-07T17:01:07.727Z,101708.41
2023-10-07T17:03:34.597Z,101715.09
2023-10-07T17:06:03.117Z,101713.25
2023-10-07T17:08:29.986Z,101714.69
2023-10-07T17:10:58.583Z,101713.06
2023-10-07T17:13:26.085Z,101707.19
2023-10-07T17:16:02.916Z,101712.44
2023-10-07T17:18:29.673Z,101709.03
2023-10-07T17:20:59.832Z,101717.69
2023-10-07T17:23:28.241Z,101711.66
2023-10-07T17:25:55.428Z,101717.50
2023-10-07T17:28:23.737Z,101713.00
2023-10-07T17:30:51.109Z,101708.13
2023-10-07T17:33:21.933Z,101698.63
2023-10-07T17:35:49.572Z,101697.59
2023-10-07T17:38:17.667Z,101694.38
2023-10-07T17:40:46.845Z,101678.78
2023-10-07T17:43:13.536Z,101671.91
2023-10-07T17:45:46.116Z,101689.53
2023-10-07T17:48:13.157Z,101703.69
2023-10-07T17:50:41.426Z,101704.72
2023-10-07T17:53:10.478Z,101711.78
2023-10-07T17:55:37.598Z,101701.25
2023-10-07T17:58:05.709Z,101698.03
2023-10-07T18:00:35.134Z,101688.50
2023-10-07T18:03:02.691Z,101676.56
2023-10-07T18:05:30.306Z,101678.56
2023-10-07T18:07:57.117Z,101681.00
2023-10-07T18:10:28.523Z,101679.19
2023-10-07T18:12:55.200Z,101669.03
2023-10-07T18:15:22.035Z,101670.25
2023-10-07T18:17:49.855Z,101668.66
2023-10-07T18:20:35.989Z,101672.28
2023-10-07T18:23:03.790Z,101674.31
2023-10-07T18:25:30.664Z,101677.97
2023-10-07T18:27:59.006Z,101693.91
2023-10-07T18:30:28.495Z,101685.03
2023-10-07T18:32:55.276Z,101680.97
2023-10-07T18:35:23.159Z,101704.66
2023-10-07T18:37:49.818Z,101701.41
2023-10-07T18:40:18.279Z,101708.47
2023-10-07T18:42:46.292Z,101704.03
2023-10-07T18:45:12.961Z,101700.97
2023-10-07T18:47:41.672Z,101702.00
2023-10-07T18:50:09.162Z,101699.53
2023-10-07T18:52:36.046Z,101695.31
2023-10-07T18:55:02.953Z,101698.13
2023-10-07T18:57:29.617Z,101698.31
2023-10-07T18:59:56.250Z,101697.50
2023-10-07T19:02:24.349Z,101697.72
2023-10-07T19:04:50.986Z,101694.28
2023-10-07T19:07:18.502Z,101697.72
2023-10-07T19:09:45.110Z,101695.91
2023-10-07T19:12:13.869Z,101692.06
2023-10-07T19:14:40.786Z,101695.28
2023-10-07T19:17:07.545Z,101685.78
2023-10-07T19:19:35.210Z,101694.69
2023-10-07T19:22:02.858Z,101706.00
2023-10-07T19:24:32.324Z,101712.44
2023-10-07T19:27:03.104Z,101713.69
2023-10-07T19:29:29.890Z,101715.50
2023-10-07T19:31:56.569Z,101724.19
2023-10-07T19:34:23.721Z,101733.06
2023-10-07T19:36:50.458Z,101737.72
2023-10-07T19:39:27.507Z,101749.22
2023-10-07T19:42:05.101Z,101758.16
2023-10-07T19:44:32.142Z,101759.75
2023-10-07T19:46:59.404Z,101740.75
2023-10-07T19:49:26.164Z,101727.59
2023-10-07T19:51:53.233Z,101724.16
2023-10-07T19:54:19.778Z,101725.78
2023-10-07T19:56:46.414Z,101729.41
2023-10-07T19:59:13.325Z,101734.66
2023-10-07T20:01:40.590Z,101738.09
2023-10-07T20:04:07.976Z,101747.63
2023-10-07T20:06:36.729Z,101740.94
2023-10-07T20:09:06.096Z,101730.22
2023-10-07T20:11:33.710Z,101732.84
2023-10-07T20:14:00.598Z,101737.28
2023-10-07T20:16:28.301Z,101742.53
2023-10-07T20:18:56.045Z,101734.47
2023-10-07T20:21:23.876Z,101733.88
2023-10-07T20:23:50.706Z,101748.81
2023-10-07T20:26:20.523Z,101747.00
2023-10-07T20:28:47.390Z,101758.31
2023-10-07T20:31:18.086Z,101789.06
2023-10-07T20:33:45.645Z,101770.66
2023-10-07T20:36:16.381Z,101766.63
2023-10-07T20:38:45.323Z,101767.59
2023-10-07T20:41:12.619Z,101764.97
2023-10-07T20:43:40.658Z,101772.88
2023-10-07T20:46:12.378Z,101775.69
2023-10-07T20:48:41.331Z,101767.81
2023-10-07T20:51:15.489Z,101764.38
2023-10-07T20:53:44.149Z,101755.66
2023-10-07T20:56:12.937Z,101755.88
2023-10-07T20:58:40.088Z,101747.97
2023-10-07T21:01:24.064Z,101751.44
2023-10-07T21:03:53.102Z,101746.34
2023-10-07T21:06:21.712Z,101754.22
2023-10-07T21:08:50.509Z,101763.13
2023-10-07T21:11:18.730Z,101768.19
2023-10-07T21:13:45.426Z,101776.28
2023-10-07T21:16:13.135Z,101778.47
2023-10-07T21:18:40.397Z,101770.41
2023-10-07T21:21:14.148Z,101755.44
2023-10-07T21:23:41.815Z,101758.88
2023-10-07T21:26:22.981Z,101771.03
2023-10-07T21:28:54.968Z,101752.63
2023-10-07T21:31:32.282Z,101752.63
2023-10-07T21:33:59.307Z,101752.63
2023-10-07T21:36:26.392Z,101785.16
2023-10-07T21:38:53.112Z,101784.16
2023-10-07T21:41:19.867Z,101783.97
2023-10-07T21:43:46.586Z,101773.44
2023-10-07T21:46:13.291Z,101762.94
2023-10-07T21:48:40.320Z,101767.38
2023-10-07T21:51:08.199Z,101764.75
2023-10-07T21:53:35.939Z,101757.88
2023-10-07T21:56:12.226Z,101798.31
2023-10-07T21:58:38.959Z,101797.47
2023-10-07T22:01:17.517Z,101807.00
2023-10-07T22:03:44.593Z,101799.13
2023-10-07T22:06:14.683Z,101769.22
2023-10-07T22:08:43.336Z,101763.97
2023-10-07T22:11:11.504Z,101771.03
2023-10-07T22:13:39.023Z,101777.28
2023-10-07T22:16:08.867Z,101784.16
2023-10-07T22:18:35.926Z,101776.44
2023-10-07T22:21:05.041Z,101773.81
2023-10-07T22:23:34.454Z,101774.84
2023-10-07T22:26:08.912Z,101796.69
2023-10-07T22:28:36.165Z,101799.31
2023-10-07T22:31:03.179Z,101801.94
2023-10-07T22:33:32.617Z,101815.09
2023-10-07T22:36:09.508Z,101807.22
2023-10-07T22:38:40.890Z,101816.91
2023-10-07T22:41:19.479Z,101807.22
2023-10-07T22:43:46.507Z,101817.06
2023-10-07T22:46:21.597Z,101827.59
2023-10-07T22:48:50.077Z,101831.03
2023-10-07T22:51:23.539Z,101828.41
2023-10-07T22:53:52.852Z,101820.34
2023-10-07T22:56:22.566Z,101822.78
2023-10-07T22:58:50.014Z,101821.94
2023-10-07T23:01:33.141Z,101813.25
2023-10-07T23:04:14.787Z,101813.06
2023-10-07T23:06:43.311Z,101809.63
2023-10-07T23:09:17.493Z,101813.25
2023-10-07T23:11:49.637Z,101825.59
2023-10-07T23:14:19.621Z,101831.47
2023-10-07T23:16:54.057Z,101821.13
2023-10-07T23:19:25.398Z,101828.84
2023-10-07T23:21:52.379Z,101824.59
2023-10-07T23:24:54.645Z,101835.09
2023-10-07T23:27:24.457Z,101832.66
2023-10-07T23:29:56.337Z,101827.41
2023-10-07T23:32:23.859Z,101835.47
2023-10-07T23:35:00.662Z,101832.22
2023-10-07T23:37:31.616Z,101826.19
2023-10-07T23:39:58.515Z,101838.66
2023-10-07T23:42:29.168Z,101841.28
2023-10-07T23:44:56.966Z,101848.19
2023-10-07T23:47:26.528Z,101845.91
2023-10-07T23:49:58.992Z,101842.50
2023-10-07T23:52:27.219Z,101858.44
2023-10-07T23:54:58.638Z,101865.31
2023-10-07T23:57:30.963Z,101874.41
2023-10-07T23:59:58.767Z,101884.72
